sensor_id;sensor_type;location;lat;lon;timestamp;pressure;altitude;pressure_sealevel;temperature;humidity
13581;BME280;6861;46.170;7.222;2023-07-31T00:01:26;96183.31;;;21.85;44.83
13581;BME280;6861;46.170;7.222;2023-07-31T00:03:56;96189.31;;;21.82;45.07
13581;BME280;6861;46.170;7.222;2023-07-31T00:06:24;96192.19;;;21.77;45.33
13581;BME280;6861;46.170;7.222;2023-07-31T00:08:52;96195.19;;;21.75;45.00
13581;BME280;6861;46.170;7.222;2023-07-31T00:11:20;96184.53;;;21.75;45.40
13581;BME280;6861;46.170;7.222;2023-07-31T00:13:48;96186.41;;;21.75;45.37
13581;BME280;6861;46.170;7.222;2023-07-31T00:16:17;96180.63;;;21.73;45.47
13581;BME280;6861;46.170;7.222;2023-07-31T00:18:45;96183.50;;;21.68;45.36
13581;BME280;6861;46.170;7.222;2023-07-31T00:21:14;96189.09;;;21.63;45.30
13581;BME280;6861;46.170;7.222;2023-07-31T00:23:42;96187.75;;;21.56;45.35
13581;BME280;6861;46.170;7.222;2023-07-31T00:26:11;96191.50;;;21.55;45.04
13581;BME280;6861;46.170;7.222;2023-07-31T00:28:39;96193.50;;;21.58;45.07
13581;BME280;6861;46.170;7.222;2023-07-31T00:31:07;96190.84;;;21.58;45.54
13581;BME280;6861;46.170;7.222;2023-07-31T00:33:35;96190.28;;;21.53;45.41
13581;BME280;6861;46.170;7.222;2023-07-31T00:36:04;96190.59;;;21.51;45.05
13581;BME280;6861;46.170;7.222;2023-07-31T00:38:33;96198.34;;;21.44;45.62
13581;BME280;6861;46.170;7.222;2023-07-31T00:41:01;96198.09;;;21.37;45.52
13581;BME280;6861;46.170;7.222;2023-07-31T00:43:30;96194.09;;;21.31;45.97
13581;BME280;6861;46.170;7.222;2023-07-31T00:45:58;96200.38;;;21.26;46.05
13581;BME280;6861;46.170;7.222;2023-07-31T00:48:26;96199.97;;;21.16;46.29
13581;BME280;6861;46.170;7.222;2023-07-31T00:50:54;96204.59;;;21.07;46.40
13581;BME280;6861;46.170;7.222;2023-07-31T00:53:24;96195.25;;;21.01;46.31
13581;BME280;6861;46.170;7.222;2023-07-31T00:55:54;96192.34;;;20.93;46.55
13581;BME280;6861;46.170;7.222;2023-07-31T00:58:22;96207.13;;;20.82;46.95
13581;BME280;6861;46.170;7.222;2023-07-31T01:00:50;96210.34;;;20.76;47.08
13581;BME280;6861;46.170;7.222;2023-07-31T01:03:19;96207.72;;;20.67;47.74
13581;BME280;6861;46.170;7.222;2023-07-31T01:05:53;96206.81;;;20.63;48.09
13581;BME280;6861;46.170;7.222;2023-07-31T01:08:32;96212.47;;;20.61;48.43
13581;BME280;6861;46.170;7.222;2023-07-31T01:11:07;96201.56;;;20.54;48.28
13581;BME280;6861;46.170;7.222;2023-07-31T01:13:36;96197.19;;;20.50;48.29
13581;BME280;6861;46.170;7.222;2023-07-31T01:16:04;96211.00;;;20.43;48.37
13581;BME280;6861;46.170;7.222;2023-07-31T01:18:32;96211.47;;;20.37;48.87
13581;BME280;6861;46.170;7.222;2023-07-31T01:21:47;96200.28;;;20.22;49.09
13581;BME280;6861;46.170;7.222;2023-07-31T01:24:22;96199.22;;;20.15;49.12
13581;BME280;6861;46.170;7.222;2023-07-31T01:26:56;96202.19;;;20.13;49.26
13581;BME280;6861;46.170;7.222;2023-07-31T01:29:33;96201.75;;;20.11;49.40
13581;BME280;6861;46.170;7.222;2023-07-31T01:32:05;96193.63;;;20.08;49.36
13581;BME280;6861;46.170;7.222;2023-07-31T01:34:34;96195.03;;;20.05;49.54
13581;BME280;6861;46.170;7.222;2023-07-31T01:37:04;96191.94;;;20.03;49.73
13581;BME280;6861;46.170;7.222;2023-07-31T01:39:32;96191.66;;;19.96;50.00
13581;BME280;6861;46.170;7.222;2023-07-31T01:42:01;96190.41;;;19.93;50.29
13581;BME280;6861;46.170;7.222;2023-07-31T01:44:30;96192.94;;;19.90;50.21
13581;BME280;6861;46.170;7.222;2023-07-31T01:46:59;96196.25;;;19.87;50.33
13581;BME280;6861;46.170;7.222;2023-07-31T01:49:28;96192.66;;;19.83;50.60
13581;BME280;6861;46.170;7.222;2023-07-31T01:51:56;96190.50;;;19.76;50.62
13581;BME280;6861;46.170;7.222;2023-07-31T01:54:24;96189.41;;;19.69;51.15
13581;BME280;6861;46.170;7.222;2023-07-31T01:56:52;96187.56;;;19.60;51.19
13581;BME280;6861;46.170;7.222;2023-07-31T01:59:21;96194.59;;;19.56;51.37
13581;BME280;6861;46.170;7.222;2023-07-31T02:01:50;96195.22;;;19.53;51.34
13581;BME280;6861;46.170;7.222;2023-07-31T02:04:20;96191.16;;;19.47;51.65
13581;BME280;6861;46.170;7.222;2023-07-31T02:06:48;96194.91;;;19.46;51.57
13581;BME280;6861;46.170;7.222;2023-07-31T02:09:17;96188.38;;;19.52;51.52
13581;BME280;6861;46.170;7.222;2023-07-31T02:11:45;96195.38;;;19.57;51.63
13581;BME280;6861;46.170;7.222;2023-07-31T02:14:13;96194.91;;;19.63;51.45
13581;BME280;6861;46.170;7.222;2023-07-31T02:16:42;96198.94;;;19.70;51.00
13581;BME280;6861;46.170;7.222;2023-07-31T02:19:11;96195.03;;;19.76;50.57
13581;BME280;6861;46.170;7.222;2023-07-31T02:21:39;96183.44;;;19.80;50.49
13581;BME280;6861;46.170;7.222;2023-07-31T02:24:07;96185.78;;;19.82;50.69
13581;BME280;6861;46.170;7.222;2023-07-31T02:26:35;96179.56;;;19.78;50.87
13581;BME280;6861;46.170;7.222;2023-07-31T02:29:03;96181.75;;;19.76;50.86
13581;BME280;6861;46.170;7.222;2023-07-31T02:31:32;96185.50;;;19.75;50.91
13581;BME280;6861;46.170;7.222;2023-07-31T02:34:01;96178.63;;;19.74;50.94
13581;BME280;6861;46.170;7.222;2023-07-31T02:36:29;96179.59;;;19.69;50.87
13581;BME280;6861;46.170;7.222;2023-07-31T02:38:57;96175.38;;;19.68;50.88
13581;BME280;6861;46.170;7.222;2023-07-31T02:41:26;96170.38;;;19.67;51.08
13581;BME280;6861;46.170;7.222;2023-07-31T02:43:54;96174.59;;;19.68;51.12
13581;BME280;6861;46.170;7.222;2023-07-31T02:46:22;96180.69;;;19.68;51.02
13581;BME280;6861;46.170;7.222;2023-07-31T02:48:51;96181.00;;;19.67;51.02
13581;BME280;6861;46.170;7.222;2023-07-31T02:51:21;96183.78;;;19.70;50.99
13581;BME280;6861;46.170;7.222;2023-07-31T02:53:49;96186.13;;;19.72;50.93
13581;BME280;6861;46.170;7.222;2023-07-31T02:56:17;96183.94;;;19.74;51.17
13581;BME280;6861;46.170;7.222;2023-07-31T02:58:45;96180.19;;;19.75;50.86
13581;BME280;6861;46.170;7.222;2023-07-31T03:01:13;96187.69;;;19.73;50.95
13581;BME280;6861;46.170;7.222;2023-07-31T03:03:42;96181.47;;;19.69;51.42
13581;BME280;6861;46.170;7.222;2023-07-31T03:06:10;96187.22;;;19.71;51.30
13581;BME280;6861;46.170;7.222;2023-07-31T03:08:40;96183.00;;;19.70;51.21
13581;BME280;6861;46.170;7.222;2023-07-31T03:11:08;96186.91;;;19.72;51.18
13581;BME280;6861;46.170;7.222;2023-07-31T03:13:36;96189.88;;;19.71;51.47
13581;BME280;6861;46.170;7.222;2023-07-31T03:16:04;96192.72;;;19.66;51.34
13581;BME280;6861;46.170;7.222;2023-07-31T03:18:32;96186.94;;;19.63;51.54
13581;BME280;6861;46.170;7.222;2023-07-31T03:21:00;96181.16;;;19.61;51.46
13581;BME280;6861;46.170;7.222;2023-07-31T03:23:28;96188.66;;;19.59;51.72
13581;BME280;6861;46.170;7.222;2023-07-31T03:25:59;96188.50;;;19.56;51.92
13581;BME280;6861;46.170;7.222;2023-07-31T03:28:28;96183.06;;;19.52;52.18
13581;BME280;6861;46.170;7.222;2023-07-31T03:30:56;96175.38;;;19.51;52.22
13581;BME280;6861;46.170;7.222;2023-07-31T03:33:24;96175.69;;;19.49;52.45
13581;BME280;6861;46.170;7.222;2023-07-31T03:35:52;96182.09;;;19.48;52.47
13581;BME280;6861;46.170;7.222;2023-07-31T03:38:21;96180.38;;;19.44;52.63
13581;BME280;6861;46.170;7.222;2023-07-31T03:40:49;96181.03;;;19.41;52.72
13581;BME280;6861;46.170;7.222;2023-07-31T03:43:18;96185.88;;;19.39;52.99
13581;BME280;6861;46.170;7.222;2023-07-31T03:45:47;96188.84;;;19.37;52.72
13581;BME280;6861;46.170;7.222;2023-07-31T03:48:15;96191.66;;;19.32;53.07
13581;BME280;6861;46.170;7.222;2023-07-31T03:50:43;96189.00;;;19.23;53.43
13581;BME280;6861;46.170;7.222;2023-07-31T03:53:11;96196.97;;;19.15;53.54
13581;BME280;6861;46.170;7.222;2023-07-31T03:55:40;96203.38;;;19.14;53.75
13581;BME280;6861;46.170;7.222;2023-07-31T03:58:08;96196.19;;;19.14;53.62
13581;BME280;6861;46.170;7.222;2023-07-31T04:00:40;96204.94;;;19.15;53.74
13581;BME280;6861;46.170;7.222;2023-07-31T04:03:08;96206.19;;;19.09;54.00
13581;BME280;6861;46.170;7.222;2023-07-31T04:05:38;96206.84;;;19.06;53.96
13581;BME280;6861;46.170;7.222;2023-07-31T04:08:06;96211.19;;;19.02;54.26
13581;BME280;6861;46.170;7.222;2023-07-31T04:10:34;96212.59;;;18.99;54.45
13581;BME280;6861;46.170;7.222;2023-07-31T04:13:02;96216.34;;;18.98;53.98
13581;BME280;6861;46.170;7.222;2023-07-31T04:15:31;96212.44;;;18.95;53.96
13581;BME280;6861;46.170;7.222;2023-07-31T04:18:00;96204.66;;;18.90;54.46
13581;BME280;6861;46.170;7.222;2023-07-31T04:20:28;96218.53;;;18.87;54.09
13581;BME280;6861;46.170;7.222;2023-07-31T04:22:56;96213.38;;;18.82;54.74
13581;BME280;6861;46.170;7.222;2023-07-31T04:25:25;96200.44;;;18.81;54.69
13581;BME280;6861;46.170;7.222;2023-07-31T04:27:53;96191.22;;;18.78;54.38
13581;BME280;6861;46.170;7.222;2023-07-31T04:30:21;96194.97;;;18.77;54.27
13581;BME280;6861;46.170;7.222;2023-07-31T04:32:49;96187.94;;;18.73;54.52
13581;BME280;6861;46.170;7.222;2023-07-31T04:35:19;96191.53;;;18.68;54.66
13581;BME280;6861;46.170;7.222;2023-07-31T04:37:47;96190.22;;;18.57;54.73
13581;BME280;6861;46.170;7.222;2023-07-31T04:40:15;96193.97;;;18.56;55.05
13581;BME280;6861;46.170;7.222;2023-07-31T04:42:44;96194.91;;;18.60;55.01
13581;BME280;6861;46.170;7.222;2023-07-31T04:45:14;96187.31;;;18.67;54.25
13581;BME280;6861;46.170;7.222;2023-07-31T04:47:42;96191.53;;;18.68;54.92
13581;BME280;6861;46.170;7.222;2023-07-31T04:50:10;96182.94;;;18.62;54.89
13581;BME280;6861;46.170;7.222;2023-07-31T04:52:40;96191.78;;;18.58;55.30
13581;BME280;6861;46.170;7.222;2023-07-31T04:55:08;96191.31;;;18.56;55.15
13581;BME280;6861;46.170;7.222;2023-07-31T04:57:36;96190.22;;;18.57;55.44
13581;BME280;6861;46.170;7.222;2023-07-31T05:00:06;96193.34;;;18.59;55.09
13581;BME280;6861;46.170;7.222;2023-07-31T05:02:34;96201.63;;;18.57;54.88
13581;BME280;6861;46.170;7.222;2023-07-31T05:05:03;96203.69;;;18.60;55.31
13581;BME280;6861;46.170;7.222;2023-07-31T05:07:31;96209.75;;;18.61;54.99
13581;BME280;6861;46.170;7.222;2023-07-31T05:10:00;96202.59;;;18.61;55.03
13581;BME280;6861;46.170;7.222;2023-07-31T05:12:29;96199.00;;;18.66;54.81
13581;BME280;6861;46.170;7.222;2023-07-31T05:14:57;96187.00;;;18.69;55.43
13581;BME280;6861;46.170;7.222;2023-07-31T05:17:25;96197.00;;;18.72;55.48
13581;BME280;6861;46.170;7.222;2023-07-31T05:19:53;96196.06;;;18.76;55.69
13581;BME280;6861;46.170;7.222;2023-07-31T05:22:21;96195.44;;;18.79;55.56
13581;BME280;6861;46.170;7.222;2023-07-31T05:24:49;96198.56;;;18.81;55.51
13581;BME280;6861;46.170;7.222;2023-07-31T05:27:19;96204.34;;;18.83;55.22
13581;BME280;6861;46.170;7.222;2023-07-31T05:29:47;96211.19;;;18.84;55.13
13581;BME280;6861;46.170;7.222;2023-07-31T05:32:15;96205.41;;;18.82;55.26
13581;BME280;6861;46.170;7.222;2023-07-31T05:34:43;96201.53;;;18.80;55.75
13581;BME280;6861;46.170;7.222;2023-07-31T05:37:11;96201.06;;;18.78;55.78
13581;BME280;6861;46.170;7.222;2023-07-31T05:39:39;96213.06;;;18.75;56.04
13581;BME280;6861;46.170;7.222;2023-07-31T05:42:08;96212.75;;;18.77;55.98
13581;BME280;6861;46.170;7.222;2023-07-31T05:44:37;96218.22;;;18.80;55.75
13581;BME280;6861;46.170;7.222;2023-07-31T05:47:05;96224.91;;;18.86;55.19
13581;BME280;6861;46.170;7.222;2023-07-31T05:49:34;96222.91;;;18.92;55.15
13581;BME280;6861;46.170;7.222;2023-07-31T05:52:02;96218.84;;;19.03;55.15
13581;BME280;6861;46.170;7.222;2023-07-31T05:54:32;96226.63;;;19.08;55.17
13581;BME280;6861;46.170;7.222;2023-07-31T05:57:00;96230.06;;;19.17;55.32
13581;BME280;6861;46.170;7.222;2023-07-31T05:59:28;96238.63;;;19.23;55.50
13581;BME280;6861;46.170;7.222;2023-07-31T06:02:01;96237.22;;;19.25;55.51
13581;BME280;6861;46.170;7.222;2023-07-31T06:04:29;96230.06;;;19.26;55.39
13581;BME280;6861;46.170;7.222;2023-07-31T06:06:57;96218.66;;;19.25;55.31
13581;BME280;6861;46.170;7.222;2023-07-31T06:09:25;96217.25;;;19.28;55.50
13581;BME280;6861;46.170;7.222;2023-07-31T06:11:54;96218.47;;;19.48;55.36
13581;BME280;6861;46.170;7.222;2023-07-31T06:14:22;96224.53;;;19.83;54.76
13581;BME280;6861;46.170;7.222;2023-07-31T06:16:50;96223.59;;;20.17;53.90
13581;BME280;6861;46.170;7.222;2023-07-31T06:19:19;96218.97;;;20.35;53.22
13581;BME280;6861;46.170;7.222;2023-07-31T06:21:48;96220.81;;;20.51;52.90
13581;BME280;6861;46.170;7.222;2023-07-31T06:24:16;96221.09;;;20.79;52.16
13581;BME280;6861;46.170;7.222;2023-07-31T06:26:47;96213.22;;;21.04;51.84
13581;BME280;6861;46.170;7.222;2023-07-31T06:29:15;96215.06;;;21.33;51.33
13581;BME280;6861;46.170;7.222;2023-07-31T06:31:43;96206.50;;;21.72;50.76
13581;BME280;6861;46.170;7.222;2023-07-31T06:34:11;96207.81;;;22.11;49.34
13581;BME280;6861;46.170;7.222;2023-07-31T06:36:41;96209.38;;;22.49;48.28
13581;BME280;6861;46.170;7.222;2023-07-31T06:39:09;96211.41;;;22.92;47.75
13581;BME280;6861;46.170;7.222;2023-07-31T06:41:38;96213.63;;;23.30;46.54
13581;BME280;6861;46.170;7.222;2023-07-31T06:44:06;96208.13;;;23.67;46.28
13581;BME280;6861;46.170;7.222;2023-07-31T06:46:34;96196.25;;;23.96;45.55
13581;BME280;6861;46.170;7.222;2023-07-31T06:49:03;96190.66;;;24.16;45.16
13581;BME280;6861;46.170;7.222;2023-07-31T06:51:31;96187.09;;;24.44;44.72
13581;BME280;6861;46.170;7.222;2023-07-31T06:54:01;96186.69;;;24.61;44.31
13581;BME280;6861;46.170;7.222;2023-07-31T06:56:29;96191.38;;;24.83;43.77
13581;BME280;6861;46.170;7.222;2023-07-31T06:58:57;96187.91;;;24.99;43.38
13581;BME280;6861;46.170;7.222;2023-07-31T07:01:25;96176.75;;;25.16;42.79
13581;BME280;6861;46.170;7.222;2023-07-31T07:03:54;96175.34;;;25.22;42.95
13581;BME280;6861;46.170;7.222;2023-07-31T07:06:23;96163.22;;;25.28;42.65
13581;BME280;6861;46.170;7.222;2023-07-31T07:08:51;96164.47;;;25.34;42.10
13581;BME280;6861;46.170;7.222;2023-07-31T07:11:20;96152.75;;;25.42;42.47
13581;BME280;6861;46.170;7.222;2023-07-31T07:13:48;96155.28;;;25.55;41.62
13581;BME280;6861;46.170;7.222;2023-07-31T07:16:17;96153.00;;;25.57;41.19
13581;BME280;6861;46.170;7.222;2023-07-31T07:18:45;96160.56;;;25.51;41.15
13581;BME280;6861;46.170;7.222;2023-07-31T07:21:29;96154.31;;;25.43;40.96
13581;BME280;6861;46.170;7.222;2023-07-31T07:23:57;96148.75;;;25.33;40.79
13581;BME280;6861;46.170;7.222;2023-07-31T07:26:27;96147.19;;;25.32;41.10
13581;BME280;6861;46.170;7.222;2023-07-31T07:28:55;96144.03;;;25.26;41.50
13581;BME280;6861;46.170;7.222;2023-07-31T07:31:27;96139.22;;;25.12;41.56
13581;BME280;6861;46.170;7.222;2023-07-31T07:33:55;96139.94;;;25.09;41.18
13581;BME280;6861;46.170;7.222;2023-07-31T07:36:23;96132.53;;;25.03;41.36
13581;BME280;6861;46.170;7.222;2023-07-31T07:38:52;96125.97;;;25.00;41.30
13581;BME280;6861;46.170;7.222;2023-07-31T07:41:20;96126.41;;;25.02;41.03
13581;BME280;6861;46.170;7.222;2023-07-31T07:43:49;96115.47;;;25.11;41.15
13581;BME280;6861;46.170;7.222;2023-07-31T07:46:18;96119.00;;;25.38;40.59
13581;BME280;6861;46.170;7.222;2023-07-31T07:48:46;96116.22;;;25.54;40.42
13581;BME280;6861;46.170;7.222;2023-07-31T07:51:14;96111.13;;;25.68;40.15
13581;BME280;6861;46.170;7.222;2023-07-31T07:53:43;96112.19;;;25.86;40.23
13581;BME280;6861;46.170;7.222;2023-07-31T07:56:11;96115.38;;;25.95;39.67
13581;BME280;6861;46.170;7.222;2023-07-31T07:58:39;96106.28;;;26.03;39.77
13581;BME280;6861;46.170;7.222;2023-07-31T08:01:08;96103.28;;;26.08;38.95
13581;BME280;6861;46.170;7.222;2023-07-31T08:03:37;96104.19;;;26.16;38.74
13581;BME280;6861;46.170;7.222;2023-07-31T08:06:05;96097.00;;;26.24;39.01
13581;BME280;6861;46.170;7.222;2023-07-31T08:08:36;96094.41;;;26.31;38.54
13581;BME280;6861;46.170;7.222;2023-07-31T08:11:04;96094.13;;;26.36;38.41
13581;BME280;6861;46.170;7.222;2023-07-31T08:13:33;96096.81;;;26.36;38.29
13581;BME280;6861;46.170;7.222;2023-07-31T08:16:03;96100.06;;;26.49;38.86
13581;BME280;6861;46.170;7.222;2023-07-31T08:18:33;96101.69;;;26.57;38.23
13581;BME280;6861;46.170;7.222;2023-07-31T08:21:03;96106.38;;;26.63;38.55
13581;BME280;6861;46.170;7.222;2023-07-31T08:23:31;96107.56;;;26.66;38.14
13581;BME280;6861;46.170;7.222;2023-07-31T08:25:59;96114.44;;;26.63;38.30
13581;BME280;6861;46.170;7.222;2023-07-31T08:28:27;96101.00;;;26.63;37.97
13581;BME280;6861;46.170;7.222;2023-07-31T08:30:55;96111.84;;;26.70;38.01
13581;BME280;6861;46.170;7.222;2023-07-31T08:33:24;96100.50;;;26.88;37.77
13581;BME280;6861;46.170;7.222;2023-07-31T08:35:53;96098.59;;;26.85;37.63
13581;BME280;6861;46.170;7.222;2023-07-31T08:38:22;96096.59;;;26.78;37.62
13581;BME280;6861;46.170;7.222;2023-07-31T08:40:52;96097.47;;;26.89;38.31
13581;BME280;6861;46.170;7.222;2023-07-31T08:43:21;96089.50;;;26.96;37.45
13581;BME280;6861;46.170;7.222;2023-07-31T08:45:50;96083.63;;;26.84;37.26
13581;BME280;6861;46.170;7.222;2023-07-31T08:48:20;96069.53;;;26.60;37.17
13581;BME280;6861;46.170;7.222;2023-07-31T08:50:49;96060.59;;;26.23;37.83
13581;BME280;6861;46.170;7.222;2023-07-31T08:53:18;96059.06;;;25.95;38.39
13581;BME280;6861;46.170;7.222;2023-07-31T08:55:48;96053.97;;;25.87;38.45
13581;BME280;6861;46.170;7.222;2023-07-31T08:58:17;96056.38;;;25.95;38.94
13581;BME280;6861;46.170;7.222;2023-07-31T09:00:46;96052.56;;;26.26;39.29
13581;BME280;6861;46.170;7.222;2023-07-31T09:03:18;96037.31;;;26.60;39.45
13581;BME280;6861;46.170;7.222;2023-07-31T09:05:47;96043.34;;;26.87;39.39
13581;BME280;6861;46.170;7.222;2023-07-31T09:08:20;96042.41;;;27.06;37.96
13581;BME280;6861;46.170;7.222;2023-07-31T09:10:48;96041.81;;;27.23;38.47
13581;BME280;6861;46.170;7.222;2023-07-31T09:13:17;96036.59;;;27.41;37.72
13581;BME280;6861;46.170;7.222;2023-07-31T09:15:46;96033.75;;;27.64;38.12
13581;BME280;6861;46.170;7.222;2023-07-31T09:18:14;96039.97;;;27.82;37.78
13581;BME280;6861;46.170;7.222;2023-07-31T09:20:45;96034.69;;;27.96;37.90
13581;BME280;6861;46.170;7.222;2023-07-31T09:23:40;96030.19;;;28.15;37.34
13581;BME280;6861;46.170;7.222;2023-07-31T09:26:08;96030.34;;;28.36;36.84
13581;BME280;6861;46.170;7.222;2023-07-31T09:28:37;96025.78;;;28.54;35.87
13581;BME280;6861;46.170;7.222;2023-07-31T09:31:05;96023.13;;;28.68;35.80
13581;BME280;6861;46.170;7.222;2023-07-31T09:33:33;96015.84;;;28.80;35.68
13581;BME280;6861;46.170;7.222;2023-07-31T09:36:04;96010.50;;;28.94;36.05
13581;BME280;6861;46.170;7.222;2023-07-31T09:38:34;96014.41;;;29.11;35.77
13581;BME280;6861;46.170;7.222;2023-07-31T09:41:02;96011.34;;;29.30;35.69
13581;BME280;6861;46.170;7.222;2023-07-31T09:43:30;96003.66;;;29.43;35.16
13581;BME280;6861;46.170;7.222;2023-07-31T09:45:58;96002.47;;;29.51;35.35
13581;BME280;6861;46.170;7.222;2023-07-31T09:48:27;95998.22;;;29.64;35.19
13581;BME280;6861;46.170;7.222;2023-07-31T09:51:04;95983.94;;;29.81;35.03
13581;BME280;6861;46.170;7.222;2023-07-31T09:53:33;95980.47;;;29.91;34.97
13581;BME280;6861;46.170;7.222;2023-07-31T09:56:02;95985.09;;;30.02;34.71
13581;BME280;6861;46.170;7.222;2023-07-31T09:58:34;95972.72;;;30.11;34.42
13581;BME280;6861;46.170;7.222;2023-07-31T10:01:02;95976.16;;;30.19;34.26
13581;BME280;6861;46.170;7.222;2023-07-31T10:03:31;95964.19;;;30.27;34.34
13581;BME280;6861;46.170;7.222;2023-07-31T10:06:01;95967.19;;;30.36;34.20
13581;BME280;6861;46.170;7.222;2023-07-31T10:08:33;95955.97;;;30.45;33.95
13581;BME280;6861;46.170;7.222;2023-07-31T10:11:04;95950.94;;;30.50;33.77
13581;BME280;6861;46.170;7.222;2023-07-31T10:13:33;95943.94;;;30.56;33.65
13581;BME280;6861;46.170;7.222;2023-07-31T10:16:02;95939.69;;;30.62;33.86
13581;BME280;6861;46.170;7.222;2023-07-31T10:18:31;95941.59;;;30.65;33.19
13581;BME280;6861;46.170;7.222;2023-07-31T10:21:00;95933.91;;;30.64;33.82
13581;BME280;6861;46.170;7.222;2023-07-31T10:23:28;95936.22;;;30.62;33.28
13581;BME280;6861;46.170;7.222;2023-07-31T10:25:58;95920.81;;;30.59;33.20
13581;BME280;6861;46.170;7.222;2023-07-31T10:28:29;95908.47;;;30.54;33.62
13581;BME280;6861;46.170;7.222;2023-07-31T10:30:57;95904.63;;;30.52;33.33
13581;BME280;6861;46.170;7.222;2023-07-31T10:33:26;95909.66;;;30.46;33.73
13581;BME280;6861;46.170;7.222;2023-07-31T10:36:12;95907.03;;;30.36;33.91
13581;BME280;6861;46.170;7.222;2023-07-31T10:38:41;95898.63;;;30.23;33.98
13581;BME280;6861;46.170;7.222;2023-07-31T10:41:11;95901.78;;;30.11;34.14
13581;BME280;6861;46.170;7.222;2023-07-31T10:43:39;95891.00;;;29.96;34.35
13581;BME280;6861;46.170;7.222;2023-07-31T10:46:08;95887.56;;;29.89;34.57
13581;BME280;6861;46.170;7.222;2023-07-31T10:48:37;95880.25;;;29.86;34.58
13581;BME280;6861;46.170;7.222;2023-07-31T10:51:09;95877.19;;;29.80;34.71
13581;BME280;6861;46.170;7.222;2023-07-31T10:53:38;95879.16;;;29.73;34.49
13581;BME280;6861;46.170;7.222;2023-07-31T10:56:08;95880.72;;;29.63;34.56
13581;BME280;6861;46.170;7.222;2023-07-31T10:58:43;95873.03;;;29.54;34.29
13581;BME280;6861;46.170;7.222;2023-07-31T11:01:12;95881.94;;;29.44;34.54
13581;BME280;6861;46.170;7.222;2023-07-31T11:03:41;95865.00;;;29.33;34.86
13581;BME280;6861;46.170;7.222;2023-07-31T11:06:10;95861.16;;;29.20;35.05
13581;BME280;6861;46.170;7.222;2023-07-31T11:08:42;95863.50;;;29.07;35.07
13581;BME280;6861;46.170;7.222;2023-07-31T11:11:12;95858.09;;;28.93;35.21
13581;BME280;6861;46.170;7.222;2023-07-31T11:13:45;95857.72;;;28.84;35.47
13581;BME280;6861;46.170;7.222;2023-07-31T11:16:17;95848.84;;;28.65;35.59
13581;BME280;6861;46.170;7.222;2023-07-31T11:18:46;95844.63;;;28.54;35.80
13581;BME280;6861;46.170;7.222;2023-07-31T11:21:16;95841.94;;;28.50;36.55
13581;BME280;6861;46.170;7.222;2023-07-31T11:23:46;95833.09;;;28.50;36.94
13581;BME280;6861;46.170;7.222;2023-07-31T11:26:15;95833.47;;;28.52;36.54
13581;BME280;6861;46.170;7.222;2023-07-31T11:28:46;95821.94;;;28.51;36.85
13581;BME280;6861;46.170;7.222;2023-07-31T11:31:15;95812.31;;;28.54;36.80
13581;BME280;6861;46.170;7.222;2023-07-31T11:33:43;95809.63;;;28.54;36.72
13581;BME280;6861;46.170;7.222;2023-07-31T11:36:14;95800.41;;;28.51;36.85
13581;BME280;6861;46.170;7.222;2023-07-31T11:38:43;95795.00;;;28.51;36.99
13581;BME280;6861;46.170;7.222;2023-07-31T11:41:14;95788.47;;;28.52;36.30
13581;BME280;6861;46.170;7.222;2023-07-31T11:43:43;95780.41;;;28.52;36.25
13581;BME280;6861;46.170;7.222;2023-07-31T11:46:13;95776.56;;;28.50;36.45
13581;BME280;6861;46.170;7.222;2023-07-31T11:48:42;95780.41;;;28.52;36.39
13581;BME280;6861;46.170;7.222;2023-07-31T11:51:12;95780.41;;;28.49;36.41
13581;BME280;6861;46.170;7.222;2023-07-31T11:53:43;95771.16;;;28.46;35.83
13581;BME280;6861;46.170;7.222;2023-07-31T11:56:14;95777.31;;;28.47;36.54
13581;BME280;6861;46.170;7.222;2023-07-31T11:58:44;95782.72;;;28.50;37.11
13581;BME280;6861;46.170;7.222;2023-07-31T12:01:15;95774.63;;;28.54;37.16
13581;BME280;6861;46.170;7.222;2023-07-31T12:03:47;95759.63;;;28.56;37.66
13581;BME280;6861;46.170;7.222;2023-07-31T12:06:15;95766.16;;;28.55;37.38
13581;BME280;6861;46.170;7.222;2023-07-31T12:08:43;95759.63;;;28.53;37.89
13581;BME280;6861;46.170;7.222;2023-07-31T12:11:11;95753.47;;;28.52;37.37
13581;BME280;6861;46.170;7.222;2023-07-31T12:13:41;95750.78;;;28.52;37.66
13581;BME280;6861;46.170;7.222;2023-07-31T12:16:09;95747.72;;;28.54;38.33
13581;BME280;6861;46.170;7.222;2023-07-31T12:18:39;95741.16;;;28.55;38.11
13581;BME280;6861;46.170;7.222;2023-07-31T12:21:08;95745.00;;;28.57;38.16
13581;BME280;6861;46.170;7.222;2023-07-31T12:23:38;95743.47;;;28.56;37.97
13581;BME280;6861;46.170;7.222;2023-07-31T12:26:11;95731.16;;;28.55;37.51
13581;BME280;6861;46.170;7.222;2023-07-31T12:28:41;95737.31;;;28.56;37.95
13581;BME280;6861;46.170;7.222;2023-07-31T12:31:11;95728.84;;;28.57;37.39
13581;BME280;6861;46.170;7.222;2023-07-31T12:33:41;95733.09;;;28.58;37.51
13581;BME280;6861;46.170;7.222;2023-07-31T12:36:11;95735.78;;;28.58;37.19
13581;BME280;6861;46.170;7.222;2023-07-31T12:38:40;95725.78;;;28.59;37.07
13581;BME280;6861;46.170;7.222;2023-07-31T12:41:09;95740.00;;;28.59;37.30
13581;BME280;6861;46.170;7.222;2023-07-31T12:43:38;95733.84;;;28.59;37.56
13581;BME280;6861;46.170;7.222;2023-07-31T12:46:07;95731.94;;;28.59;37.22
13581;BME280;6861;46.170;7.222;2023-07-31T12:48:36;95731.94;;;28.59;36.72
13581;BME280;6861;46.170;7.222;2023-07-31T12:51:06;95731.13;;;28.62;36.61
13581;BME280;6861;46.170;7.222;2023-07-31T12:53:35;95731.13;;;28.62;36.90
13581;BME280;6861;46.170;7.222;2023-07-31T12:56:03;95723.44;;;28.64;36.20
13581;BME280;6861;46.170;7.222;2023-07-31T12:58:31;95714.22;;;28.62;36.03
13581;BME280;6861;46.170;7.222;2023-07-31T13:00:59;95699.97;;;28.61;36.26
13581;BME280;6861;46.170;7.222;2023-07-31T13:03:29;95701.13;;;28.60;35.73
13581;BME280;6861;46.170;7.222;2023-07-31T13:05:57;95690.38;;;28.60;35.91
13581;BME280;6861;46.170;7.222;2023-07-31T13:08:27;95699.63;;;28.59;35.59
13581;BME280;6861;46.170;7.222;2023-07-31T13:10:55;95690.00;;;28.58;35.32
13581;BME280;6861;46.170;7.222;2023-07-31T13:13:23;95678.09;;;28.59;35.62
13581;BME280;6861;46.170;7.222;2023-07-31T13:15:51;95670.34;;;28.61;35.71
13581;BME280;6861;46.170;7.222;2023-07-31T13:18:19;95654.97;;;28.62;35.89
13581;BME280;6861;46.170;7.222;2023-07-31T13:20:48;95668.81;;;28.60;35.30